Atlantic Frontier — VRDJ7 — position and weather

sailwx.info

Track history (hours):
 
Tides and Currents Weather Stations Pressure Air Temp Water Temp Dewpoint Dewpoint Depression Visibility Wind Speed Wind Dir Waves Ship Positions

Atlantic Frontier

Last reported at 2018-May-15 09:48 UTC. Time now 2018-Jun-25 09:41 UTC.
Position N 35°35' E 129°54'.
Warning: this ship's position is 40 days out of date.

Length 183 m; draft 7.8 m.

Type: Tanker. MMSI: 477969700.

Date/timePositionNaut miles runAvg speedWind from/ knotsBaromVisibWave heightAir tempDewpointWater temp
2018-May-15 09:48N 35°35' E 129°54'3 9.4
2018-May-15 09:30N 35°37' E 129°53'2 1.7
2018-May-15 08:05N 35°37' E 129°50'0 1.3
2018-May-15 07:57N 35°37' E 129°50'1 1.6
2018-May-15 07:30N 35°36' E 129°49'1 1.7
2018-May-15 07:00N 35°36' E 129°48'1 1.8
2018-May-15 06:25N 35°36' E 129°47'1 1.9
2018-May-15 06:00N 35°36' E 129°46'1 2.3
2018-May-15 05:30N 35°35' E 129°45'0 0.6
2018-May-15 05:00N 35°35' E 129°45'1 2.1
2018-May-15 04:30N 35°34' E 129°44'1 1.9
2018-May-15 04:00N 35°34' E 129°44'1 2.3
2018-May-15 03:30N 35°32' E 129°44'1 2.5
2018-May-15 02:56N 35°31' E 129°44'1 3.3
2018-May-15 02:30N 35°30' E 129°46'2 4.3
2018-May-15 02:01N 35°30' E 129°48'1 2.4
2018-May-15 01:30N 35°31' E 129°49'1 2.1
2018-May-15 01:00N 35°30' E 129°48'1 1.7
2018-May-15 00:20N 35°30' E 129°47'1 1.6
2018-May-14 23:59N 35°29' E 129°46'2 1.3
2018-May-14 22:39N 35°29' E 129°44'9 1.0
2018-May-14 13:54N 35°33' E 129°34'1 3.0
2018-May-14 13:29N 35°32' E 129°34'2 2.9
2018-May-14 12:58N 35°30' E 129°34'2 2.8
2018-May-14 12:08N 35°28' E 129°33'0 2.8
2018-May-14 12:00N 35°28' E 129°33'1 2.6
2018-May-14 11:30N 35°27' E 129°33'1 2.3
2018-May-14 10:58N 35°25' E 129°33'1 2.0
2018-May-14 10:29N 35°24' E 129°33'1 1.9
2018-May-14 09:55N 35°23' E 129°34'1 1.9
2018-May-14 09:29N 35°23' E 129°34'1 1.9
2018-May-14 08:56N 35°23' E 129°35'1 1.2
2018-May-14 08:29N 35°24' E 129°35'4 6.1
2018-May-14 07:54N 35°21' E 129°33'7 7.8
2018-May-14 07:01N 35°15' E 129°29'0 5.1
2018-May-14 06:58N 35°15' E 129°29'1411.8
2018-May-14 05:48N 35°01' E 129°27'513.8
2018-May-14 05:27N 34°57' E 129°24'613.7
2018-May-14 04:59N 34°52' E 129°18'20813.8
2018-May-13 13:56N 31°53' E 127°13'813.4
2018-May-13 13:21N 31°46' E 127°09'  
Track history (hours):
 
Tides and Currents Weather Stations Pressure Air Temp Water Temp Dewpoint Dewpoint Depression Visibility Wind Speed Wind Dir Waves Ship Positions

Atlantic Frontier

Last reported at 2018-May-15 09:48 UTC. Time now 2018-Jun-25 09:41 UTC.
Position N 35°35' E 129°54'.
Warning: this ship's position is 40 days out of date.

Length 183 m; draft 7.8 m.

Type: Tanker. MMSI: 477969700.

Date/timePositionNaut miles runAvg speedWind from/ knotsBaromVisibWave heightAir tempDewpointWater temp
2018-May-15 09:48N 35°35' E 129°54'3 9.4
2018-May-15 09:30N 35°37' E 129°53'2 1.7
2018-May-15 08:05N 35°37' E 129°50'0 1.3
2018-May-15 07:57N 35°37' E 129°50'1 1.6
2018-May-15 07:30N 35°36' E 129°49'1 1.7
2018-May-15 07:00N 35°36' E 129°48'1 1.8
2018-May-15 06:25N 35°36' E 129°47'1 1.9
2018-May-15 06:00N 35°36' E 129°46'1 2.3
2018-May-15 05:30N 35°35' E 129°45'0 0.6
2018-May-15 05:00N 35°35' E 129°45'1 2.1
2018-May-15 04:30N 35°34' E 129°44'1 1.9
2018-May-15 04:00N 35°34' E 129°44'1 2.3
2018-May-15 03:30N 35°32' E 129°44'1 2.5
2018-May-15 02:56N 35°31' E 129°44'1 3.3
2018-May-15 02:30N 35°30' E 129°46'2 4.3
2018-May-15 02:01N 35°30' E 129°48'1 2.4
2018-May-15 01:30N 35°31' E 129°49'1 2.1
2018-May-15 01:00N 35°30' E 129°48'1 1.7
2018-May-15 00:20N 35°30' E 129°47'1 1.6
2018-May-14 23:59N 35°29' E 129°46'2 1.3
2018-May-14 22:39N 35°29' E 129°44'9 1.0
2018-May-14 13:54N 35°33' E 129°34'1 3.0
2018-May-14 13:29N 35°32' E 129°34'2 2.9
2018-May-14 12:58N 35°30' E 129°34'2 2.8
2018-May-14 12:08N 35°28' E 129°33'0 2.8
2018-May-14 12:00N 35°28' E 129°33'1 2.6
2018-May-14 11:30N 35°27' E 129°33'1 2.3
2018-May-14 10:58N 35°25' E 129°33'1 2.0
2018-May-14 10:29N 35°24' E 129°33'1 1.9
2018-May-14 09:55N 35°23' E 129°34'1 1.9
2018-May-14 09:29N 35°23' E 129°34'1 1.9
2018-May-14 08:56N 35°23' E 129°35'1 1.2
2018-May-14 08:29N 35°24' E 129°35'4 6.1
2018-May-14 07:54N 35°21' E 129°33'7 7.8
2018-May-14 07:01N 35°15' E 129°29'0 5.1
2018-May-14 06:58N 35°15' E 129°29'1411.8
2018-May-14 05:48N 35°01' E 129°27'513.8
2018-May-14 05:27N 34°57' E 129°24'613.7
2018-May-14 04:59N 34°52' E 129°18'20813.8
2018-May-13 13:56N 31°53' E 127°13'813.4
2018-May-13 13:21N 31°46' E 127°09'  

Dump ship's entire track history